Time;durP1;ratioP1;P1;durP2;ratioP2;P2;SDS_P1;SDS_P2;PMS_P1;PMS_P2;Temp;Humidity;BMP_temperature;BMP_pressure;BME280_temperature;BME280_humidity;BME280_pressure;Samples;Min_cycle;Max_cycle;Signal;HPM_P1;HPM_P2
2022/08/30 00:01:30;;;;;;;21.23;7.10;;;;;;;20.87;69.52;96447.88;5093298;28;20102;-61
2022/08/30 00:03:59;;;;;;;12.52;6.07;;;;;;;20.87;69.77;96442.56;5093345;28;20141;-61
2022/08/30 00:06:28;;;;;;;10.00;6.88;;;;;;;20.85;70.11;96448.00;5093277;28;20047;-59
2022/08/30 00:08:56;;;;;;;12.43;6.47;;;;;;;20.71;68.85;96442.00;5093425;28;20043;-59
2022/08/30 00:11:29;;;;;;;16.63;7.20;;;;;;;20.65;69.48;96442.50;5093683;28;20130;-61
2022/08/30 00:13:57;;;;;;;16.30;6.80;;;;;;;20.63;69.69;96444.44;5097401;28;20044;-61
2022/08/30 00:16:25;;;;;;;13.20;7.45;;;;;;;20.57;69.65;96436.97;5097282;28;20044;-60
2022/08/30 00:18:54;;;;;;;15.85;7.18;;;;;;;20.55;70.14;96446.88;5097291;28;20504;-60
2022/08/30 00:21:22;;;;;;;12.85;6.82;;;;;;;20.52;69.98;96447.97;5097175;28;20452;-60
2022/08/30 00:23:49;;;;;;;15.75;7.07;;;;;;;20.47;70.06;96444.84;5097355;28;20048;-61
2022/08/30 00:26:16;;;;;;;12.43;7.05;;;;;;;20.43;69.46;96435.41;5097129;28;20135;-59
2022/08/30 00:28:43;;;;;;;12.85;7.47;;;;;;;20.35;69.70;96440.50;5097146;28;20087;-60
2022/08/30 00:31:11;;;;;;;16.40;6.90;;;;;;;20.27;70.36;96434.00;5096996;28;20040;-61
2022/08/30 00:33:39;;;;;;;16.90;7.75;;;;;;;19.95;70.90;96437.31;5097150;28;20440;-61
2022/08/30 00:36:08;;;;;;;19.65;7.85;;;;;;;19.93;71.80;96437.44;5096952;28;20091;-59
2022/08/30 00:38:35;;;;;;;17.13;7.30;;;;;;;19.95;71.84;96442.63;5096922;28;20050;-61
2022/08/30 00:41:02;;;;;;;14.73;7.10;;;;;;;19.91;72.10;96438.53;5096577;28;20044;-59
2022/08/30 00:43:32;;;;;;;15.02;6.93;;;;;;;19.90;71.84;96428.88;5097120;28;20040;-59
2022/08/30 00:46:03;;;;;;;16.90;7.80;;;;;;;19.87;71.19;96432.59;5096735;28;20547;-60
2022/08/30 00:48:30;;;;;;;25.42;8.05;;;;;;;19.84;71.46;96440.84;5096653;28;20126;-61
2022/08/30 00:51:01;;;;;;;8.98;6.50;;;;;;;19.82;71.81;96432.13;5096745;28;20584;-58
2022/08/30 00:53:34;;;;;;;14.27;7.50;;;;;;;19.79;72.24;96432.38;5096676;28;20056;-60
2022/08/30 00:56:02;;;;;;;14.50;8.18;;;;;;;19.69;71.53;96433.06;5096578;28;20076;-60
2022/08/30 00:58:32;;;;;;;12.02;7.50;;;;;;;19.64;71.69;96432.59;5096600;28;20056;-60
2022/08/30 01:01:01;;;;;;;15.32;7.80;;;;;;;19.61;72.01;96435.47;5096571;28;20048;-60
2022/08/30 01:03:29;;;;;;;17.17;8.38;;;;;;;19.57;71.87;96434.84;5096436;28;20143;-59
2022/08/30 01:05:57;;;;;;;16.05;7.53;;;;;;;19.49;72.48;96429.31;5096390;28;20040;-60
2022/08/30 01:08:25;;;;;;;14.43;8.52;;;;;;;19.47;72.41;96433.88;5096371;28;20040;-59
2022/08/30 01:10:56;;;;;;;16.70;8.27;;;;;;;19.45;72.19;96434.00;5096267;28;20573;-60
2022/08/30 01:13:25;;;;;;;20.90;8.00;;;;;;;19.39;72.63;96437.09;5096418;28;20087;-61
2022/08/30 01:15:52;;;;;;;15.30;7.63;;;;;;;19.35;72.48;96433.00;5096118;28;20101;-60
2022/08/30 01:18:19;;;;;;;14.57;8.85;;;;;;;19.31;72.73;96434.19;5096164;28;20135;-60
2022/08/30 01:20:53;;;;;;;21.65;9.57;;;;;;;19.23;72.56;96431.28;5096153;28;20127;-59
2022/08/30 01:23:22;;;;;;;17.13;9.05;;;;;;;19.14;73.08;96432.81;5095953;28;20094;-58
2022/08/30 01:25:52;;;;;;;16.10;8.80;;;;;;;19.14;73.28;96423.03;5096173;28;20047;-61
2022/08/30 01:28:23;;;;;;;14.30;9.10;;;;;;;19.13;73.57;96429.31;5096018;28;20048;-62
2022/08/30 01:30:50;;;;;;;20.55;8.98;;;;;;;19.09;73.53;96434.97;5096054;28;20128;-60
2022/08/30 01:33:18;;;;;;;16.27;9.38;;;;;;;19.08;73.69;96436.75;5095889;28;20549;-61
2022/08/30 01:35:52;;;;;;;19.27;9.38;;;;;;;19.09;73.68;96437.59;5095770;28;20048;-61
2022/08/30 01:38:23;;;;;;;13.73;8.93;;;;;;;19.07;73.33;96432.38;5095857;28;20537;-61
2022/08/30 01:40:51;;;;;;;13.88;8.73;;;;;;;18.97;73.57;96426.09;5095577;28;20139;-60
2022/08/30 01:43:19;;;;;;;13.77;9.68;;;;;;;18.92;73.76;96427.28;5095707;28;20501;-61
2022/08/30 01:45:47;;;;;;;11.63;8.95;;;;;;;18.96;73.88;96437.66;5095694;28;20109;-60
2022/08/30 01:48:15;;;;;;;11.57;9.32;;;;;;;18.89;73.73;96434.59;5095733;28;20102;-60
2022/08/30 01:50:42;;;;;;;16.52;9.70;;;;;;;18.82;73.97;96440.34;5095656;28;20084;-60
2022/08/30 01:53:09;;;;;;;14.60;9.73;;;;;;;18.91;74.16;96430.88;5095518;28;20056;-60
2022/08/30 01:55:39;;;;;;;13.57;9.00;;;;;;;18.91;74.03;96425.56;5095379;28;20094;-60
2022/08/30 01:58:06;;;;;;;14.88;8.68;;;;;;;18.89;73.37;96427.50;5095427;28;20086;-61
2022/08/30 02:00:33;;;;;;;12.57;9.68;;;;;;;18.90;73.91;96426.53;5095367;28;20044;-62
2022/08/30 02:03:00;;;;;;;12.48;9.40;;;;;;;18.92;73.77;96432.56;5095228;28;20062;-62
2022/08/30 02:05:27;;;;;;;16.10;10.00;;;;;;;18.93;73.89;96433.41;5095142;28;20054;-61
2022/08/30 02:07:54;;;;;;;16.35;9.18;;;;;;;18.91;74.05;96430.03;5095318;28;20048;-61
2022/08/30 02:10:22;;;;;;;13.63;9.93;;;;;;;18.80;73.72;96426.38;5095193;28;20470;-61
2022/08/30 02:12:51;;;;;;;16.88;10.63;;;;;;;18.81;74.24;96424.56;5095129;28;20052;-61
2022/08/30 02:15:18;;;;;;;10.18;8.80;;;;;;;18.78;74.15;96424.81;5095088;28;20493;-61
2022/08/30 02:17:45;;;;;;;22.73;10.10;;;;;;;18.72;74.05;96426.06;5095185;28;20551;-61
2022/08/30 02:20:13;;;;;;;16.50;9.90;;;;;;;18.69;73.83;96421.84;5095067;28;20044;-61
2022/08/30 02:22:41;;;;;;;12.82;9.32;;;;;;;18.73;74.01;96426.94;5094898;28;20122;-60
2022/08/30 02:25:08;;;;;;;13.40;9.45;;;;;;;18.76;74.27;96432.00;5094947;28;20044;-60
2022/08/30 02:27:35;;;;;;;16.65;9.50;;;;;;;18.78;74.40;96428.28;5094912;28;20048;-62
2022/08/30 02:30:05;;;;;;;13.27;9.80;;;;;;;18.80;74.11;96434.31;5094832;28;20044;-60
2022/08/30 02:32:32;;;;;;;16.20;9.68;;;;;;;18.79;73.84;96426.50;5094719;28;20528;-61
2022/08/30 02:35:00;;;;;;;16.08;9.35;;;;;;;18.78;73.76;96425.63;5094065;28;20088;-60
2022/08/30 02:37:27;;;;;;;14.13;9.02;;;;;;;18.74;74.00;96426.81;5094569;28;20083;-61
2022/08/30 02:39:54;;;;;;;16.92;9.82;;;;;;;18.74;74.25;96428.63;5094297;28;20054;-61
2022/08/30 02:42:21;;;;;;;19.90;10.52;;;;;;;18.72;74.45;96426.06;5094584;28;20040;-61
2022/08/30 02:44:48;;;;;;;14.30;9.20;;;;;;;18.71;74.33;96423.53;5094590;28;20059;-61
2022/08/30 02:47:16;;;;;;;12.13;8.30;;;;;;;18.74;74.16;96418.00;5094480;28;20048;-59
2022/08/30 02:49:43;;;;;;;15.85;9.68;;;;;;;18.68;74.37;96414.88;5094494;28;20067;-59
2022/08/30 02:52:11;;;;;;;14.90;10.40;;;;;;;18.67;74.49;96418.47;5094369;28;20078;-61
2022/08/30 02:54:38;;;;;;;18.15;9.88;;;;;;;18.64;74.59;96425.81;5094334;28;20048;-60
2022/08/30 02:57:05;;;;;;;11.73;9.48;;;;;;;18.63;74.81;96411.69;5094190;28;20078;-60
2022/08/30 02:59:35;;;;;;;9.77;8.63;;;;;;;18.61;74.94;96418.06;5094230;28;20044;-61
2022/08/30 03:02:02;;;;;;;21.33;9.48;;;;;;;18.57;75.13;96420.09;5094361;28;20076;-61
2022/08/30 03:04:31;;;;;;;13.90;9.45;;;;;;;18.53;75.04;96422.13;5094280;28;20048;-60
2022/08/30 03:06:58;;;;;;;20.23;9.98;;;;;;;18.48;75.11;96426.91;5094140;28;20048;-60
2022/08/30 03:09:26;;;;;;;16.52;9.82;;;;;;;18.37;75.48;96419.75;5094115;28;20493;-61
2022/08/30 03:11:53;;;;;;;21.13;9.98;;;;;;;18.33;75.36;96422.72;5094204;28;20051;-61
2022/08/30 03:14:20;;;;;;;20.02;9.57;;;;;;;18.33;75.99;96425.38;5094014;28;20492;-60
2022/08/30 03:16:47;;;;;;;13.38;9.32;;;;;;;18.25;76.05;96431.19;5093848;28;20090;-60
2022/08/30 03:19:14;;;;;;;13.00;9.43;;;;;;;18.24;76.10;96430.34;5093944;28;20056;-61
2022/08/30 03:21:43;;;;;;;9.98;8.98;;;;;;;18.26;75.88;96430.25;5093706;28;20080;-61
2022/08/30 03:24:12;;;;;;;14.55;9.45;;;;;;;18.24;75.95;96427.69;5093809;28;20077;-61
2022/08/30 03:26:39;;;;;;;16.35;10.00;;;;;;;18.26;76.27;96427.59;5093764;28;20056;-59
2022/08/30 03:29:07;;;;;;;16.48;9.50;;;;;;;18.29;75.94;96438.81;5093787;28;20550;-60
2022/08/30 03:31:34;;;;;;;18.23;10.20;;;;;;;18.27;75.42;96432.78;5093709;28;20093;-62
2022/08/30 03:34:01;;;;;;;17.92;9.75;;;;;;;18.27;75.72;96438.06;5093604;28;20048;-61
2022/08/30 03:36:28;;;;;;;16.88;10.35;;;;;;;18.24;76.11;96432.16;5093500;28;20056;-60
2022/08/30 03:38:57;;;;;;;18.92;10.00;;;;;;;18.18;76.16;96430.78;5093388;28;20044;-61
2022/08/30 03:41:24;;;;;;;16.05;10.20;;;;;;;18.18;76.50;96441.38;5093653;28;20083;-59
2022/08/30 03:43:51;;;;;;;15.93;10.43;;;;;;;18.12;76.89;96439.19;5093506;28;20048;-61
2022/08/30 03:46:18;;;;;;;18.67;10.30;;;;;;;18.10;77.14;96444.56;5092720;28;20091;-61
2022/08/30 03:48:46;;;;;;;14.77;10.18;;;;;;;18.16;76.90;96449.44;5093447;28;20054;-61
2022/08/30 03:51:13;;;;;;;20.20;9.65;;;;;;;18.18;76.52;96450.16;5093347;28;20052;-61
2022/08/30 03:53:40;;;;;;;22.30;10.27;;;;;;;18.25;76.67;96455.88;5093463;28;20075;-61
2022/08/30 03:56:09;;;;;;;13.38;10.02;;;;;;;18.31;76.12;96455.44;5093216;28;20383;-60
2022/08/30 03:58:36;;;;;;;22.35;9.27;;;;;;;18.31;76.25;96460.72;5093377;28;20105;-60
2022/08/30 04:01:03;;;;;;;17.85;9.65;;;;;;;18.37;76.02;96462.09;5093227;28;20405;-60
2022/08/30 04:03:30;;;;;;;20.10;9.88;;;;;;;18.36;76.30;96463.03;5093241;28;20479;-61
2022/08/30 04:05:57;;;;;;;11.27;10.05;;;;;;;18.40;76.13;96469.84;5093256;28;20051;-62
2022/08/30 04:08:25;;;;;;;19.95;10.05;;;;;;;18.47;76.02;96475.53;5093157;28;20454;-61
2022/08/30 04:10:52;;;;;;;20.10;9.45;;;;;;;18.53;75.77;96469.81;5093084;28;20050;-59
2022/08/30 04:13:22;;;;;;;16.48;9.23;;;;;;;18.58;75.45;96473.91;5093251;28;20048;-61
2022/08/30 04:15:50;;;;;;;14.25;9.63;;;;;;;18.64;75.70;96476.97;5093146;28;20544;-61
2022/08/30 04:18:17;;;;;;;14.73;9.07;;;;;;;18.73;75.54;96471.97;5093013;28;20132;-59
2022/08/30 04:20:45;;;;;;;16.40;9.38;;;;;;;18.84;75.06;96469.38;5093251;28;20090;-60
2022/08/30 04:23:12;;;;;;;15.45;9.23;;;;;;;18.94;74.92;96475.69;5093049;28;20055;-59
2022/08/30 04:25:41;;;;;;;12.93;9.50;;;;;;;18.97;74.99;96471.13;5093140;28;20109;-60
2022/08/30 04:28:08;;;;;;;16.98;8.70;;;;;;;19.11;75.19;96467.50;5092990;28;20452;-60
2022/08/30 04:30:39;;;;;;;14.25;8.80;;;;;;;19.38;74.34;96469.88;5092988;28;20116;-61
2022/08/30 04:33:07;;;;;;;23.35;9.02;;;;;;;19.69;73.93;96470.22;5092945;28;20374;-59
2022/08/30 04:35:34;;;;;;;13.93;8.40;;;;;;;19.99;72.42;96469.78;5092864;28;20382;-61
2022/08/30 04:38:02;;;;;;;14.00;7.88;;;;;;;20.32;71.96;96468.16;5092896;28;20504;-61
2022/08/30 04:40:29;;;;;;;16.10;7.45;;;;;;;20.63;70.47;96467.50;5092746;28;20056;-59
2022/08/30 04:42:59;;;;;;;17.35;8.05;;;;;;;21.00;69.58;96467.22;5092964;28;20456;-61
2022/08/30 04:45:26;;;;;;;14.07;7.10;;;;;;;21.38;69.03;96470.34;5092702;28;20516;-60
2022/08/30 04:47:54;;;;;;;14.02;6.72;;;;;;;21.69;67.48;96465.09;5093021;28;20048;-61
2022/08/30 04:50:22;;;;;;;17.38;6.75;;;;;;;22.03;66.61;96473.88;5092924;28;20047;-60
2022/08/30 04:52:49;;;;;;;16.90;6.45;;;;;;;22.29;65.76;96470.75;5092951;28;20603;-60
2022/08/30 04:55:16;;;;;;;13.13;6.45;;;;;;;22.55;64.80;96464.97;5092848;28;20226;-61
2022/08/30 04:57:43;;;;;;;14.10;6.78;;;;;;;22.90;63.95;96471.66;5093704;28;20047;-61
2022/08/30 05:00:13;;;;;;;10.30;6.47;;;;;;;23.27;62.67;96472.81;5096661;28;20051;-62
2022/08/30 05:02:42;;;;;;;13.63;6.78;;;;;;;23.67;61.75;96479.03;5096818;28;20093;-62
2022/08/30 05:07:56;;;;;;;16.35;5.55;;;;;;;24.66;59.80;96475.22;5096619;28;20058;-61
2022/08/30 05:10:23;;;;;;;12.55;5.68;;;;;;;25.14;59.38;96481.31;5096285;28;20073;-60
2022/08/30 05:12:51;;;;;;;10.38;5.03;;;;;;;25.60;57.99;96481.25;5096371;28;20470;-61
2022/08/30 05:15:18;;;;;;;11.38;5.72;;;;;;;26.07;56.56;96478.41;5096226;28;20132;-61
2022/08/30 05:17:45;;;;;;;6.35;4.85;;;;;;;26.54;56.24;96481.66;5096277;28;20078;-60
2022/08/30 05:20:16;;;;;;;9.38;5.38;;;;;;;26.97;53.81;96476.31;5096208;28;20474;-60
2022/08/30 05:22:48;;;;;;;;;;;;;;;27.29;49.93;96487.28;5096574;28;20056;-60
2022/08/30 05:25:17;;;;;;;11.70;5.97;;;;;;;27.49;48.92;96483.28;5096077;28;19920;-60
2022/08/30 05:27:44;;;;;;;13.52;5.38;;;;;;;27.73;48.48;96483.47;5096120;28;20055;-61
2022/08/30 05:30:13;;;;;;;15.85;5.50;;;;;;;27.93;47.56;96491.19;5095922;28;20044;-61
2022/08/30 05:32:40;;;;;;;11.75;5.55;;;;;;;28.13;48.24;96484.44;5095970;28;20059;-61
2022/08/30 05:35:09;;;;;;;14.15;5.28;;;;;;;28.34;45.83;96479.53;5095979;28;20048;-62
2022/08/30 05:37:39;;;;;;;11.18;5.80;;;;;;;28.59;46.08;96480.28;5095747;28;20490;-60
2022/08/30 05:40:07;;;;;;;12.05;6.18;;;;;;;28.84;45.68;96476.66;5095636;28;20052;-61
2022/08/30 05:42:35;;;;;;;20.02;5.32;;;;;;;29.20;47.82;96484.22;5095867;28;20054;-62
2022/08/30 05:45:04;;;;;;;15.00;5.35;;;;;;;29.68;46.41;96485.94;5095762;28;20044;-61
2022/08/30 05:47:33;;;;;;;10.10;5.63;;;;;;;30.15;46.69;96483.13;5095674;28;20040;-60
2022/08/30 05:50:02;;;;;;;9.32;5.32;;;;;;;30.60;45.72;96493.13;5095644;28;20083;-62
2022/08/30 05:52:29;;;;;;;11.30;5.15;;;;;;;30.79;43.35;96491.72;5095481;28;20074;-61
2022/08/30 05:54:59;;;;;;;9.73;5.07;;;;;;;31.07;42.70;96491.03;5095455;28;20501;-61
2022/08/30 05:57:26;;;;;;;15.25;5.50;;;;;;;31.44;41.55;96499.13;5095403;28;20058;-61
2022/08/30 05:59:53;;;;;;;11.18;4.88;;;;;;;31.78;40.39;96491.31;5095415;28;20050;-61
2022/08/30 06:02:21;;;;;;;9.85;5.20;;;;;;;31.96;39.08;96493.59;5095424;28;20379;-61
2022/08/30 06:04:48;;;;;;;11.63;5.32;;;;;;;32.06;38.87;96495.13;5095253;28;20048;-62
2022/08/30 06:07:15;;;;;;;12.90;4.90;;;;;;;32.13;39.44;96502.25;5095371;28;20044;-62
2022/08/30 06:09:44;;;;;;;11.30;4.75;;;;;;;32.35;39.08;96506.78;5094270;28;20083;-62
2022/08/30 06:12:13;;;;;;;10.02;4.38;;;;;;;32.53;38.31;96503.56;5095191;28;20089;-61
2022/08/30 06:14:41;;;;;;;18.17;5.50;;;;;;;32.71;38.41;96505.75;5095272;28;20052;-62
2022/08/30 06:17:09;;;;;;;16.70;5.03;;;;;;;32.81;37.82;96516.22;5094194;28;20125;-60
2022/08/30 06:19:37;;;;;;;13.32;4.55;;;;;;;32.86;36.87;96513.72;5095112;28;20127;-62
2022/08/30 06:22:05;;;;;;;9.75;4.43;;;;;;;32.98;37.12;96515.84;5094928;28;20556;-62
2022/08/30 06:24:35;;;;;;;10.20;5.03;;;;;;;33.06;36.88;96523.00;5095048;28;20047;-61
2022/08/30 06:27:02;;;;;;;11.93;5.25;;;;;;;33.05;37.38;96516.75;5094996;28;20055;-61
2022/08/30 06:29:31;;;;;;;12.45;5.55;;;;;;;33.20;36.88;96523.88;5094906;28;20048;-62
2022/08/30 06:31:58;;;;;;;9.75;5.00;;;;;;;33.20;37.30;96527.41;5094863;28;20055;-61
2022/08/30 06:34:26;;;;;;;13.52;5.25;;;;;;;33.32;36.12;96529.56;5094876;28;20072;-60
2022/08/30 06:36:53;;;;;;;14.48;5.30;;;;;;;33.49;35.85;96532.69;5094546;28;20511;-61
2022/08/30 06:39:20;;;;;;;11.90;5.10;;;;;;;33.69;36.59;96527.38;5094460;28;20055;-61
2022/08/30 06:41:48;;;;;;;13.65;4.72;;;;;;;33.92;35.73;96534.28;5094587;28;20098;-60
2022/08/30 06:44:16;;;;;;;12.40;5.07;;;;;;;33.86;35.09;96529.69;5094697;28;20054;-62
2022/08/30 06:46:45;;;;;;;9.57;4.75;;;;;;;33.96;34.99;96531.97;5094592;28;20547;-60
2022/08/30 06:49:12;;;;;;;7.97;5.10;;;;;;;34.14;35.96;96531.38;5094603;28;20105;-62
2022/08/30 06:51:40;;;;;;;10.32;4.50;;;;;;;34.19;33.22;96528.84;5094481;28;20499;-60
2022/08/30 06:54:08;;;;;;;12.48;4.68;;;;;;;34.25;33.51;96529.91;5094406;28;20079;-61
2022/08/30 06:56:36;;;;;;;9.00;4.25;;;;;;;34.24;33.38;96529.06;5094406;28;20052;-61
2022/08/30 06:59:04;;;;;;;10.80;4.32;;;;;;;34.25;31.84;96530.72;5094240;28;20048;-62
2022/08/30 07:01:32;;;;;;;14.00;4.80;;;;;;;34.12;32.24;96530.69;5094141;28;20044;-60
2022/08/30 07:04:00;;;;;;;10.38;4.40;;;;;;;34.15;34.03;96528.44;5094282;28;20085;-61
2022/08/30 07:06:28;;;;;;;9.35;4.20;;;;;;;33.93;32.19;96535.94;5094172;28;20512;-62
2022/08/30 07:08:56;;;;;;;9.95;4.78;;;;;;;33.67;30.86;96531.34;5094041;28;20044;-60
2022/08/30 07:11:32;;;;;;;13.32;4.32;;;;;;;33.11;32.73;96528.66;5093995;28;20048;-61
2022/08/30 07:14:00;;;;;;;11.75;4.63;;;;;;;33.28;35.21;96534.53;5094079;28;20109;-60
2022/08/30 07:16:28;;;;;;;11.15;4.28;;;;;;;33.45;33.96;96532.28;5094061;28;20383;-60
2022/08/30 07:18:54;;;;;;;7.95;4.25;;;;;;;33.62;31.63;96540.09;5093763;28;20055;-62
2022/08/30 07:21:27;;;;;;;9.82;4.10;;;;;;;33.00;31.40;96535.44;5093686;28;20043;-61
2022/08/30 07:23:55;;;;;;;16.85;5.30;;;;;;;33.05;32.18;96534.88;5093826;28;20066;-61
2022/08/30 07:26:25;;;;;;;10.75;4.50;;;;;;;33.00;33.00;96541.72;5093834;28;20055;-61
2022/08/30 07:28:53;;;;;;;10.40;3.95;;;;;;;32.97;32.71;96542.13;5093673;28;20048;-60
2022/08/30 07:31:21;;;;;;;9.65;4.68;;;;;;;33.09;33.69;96539.69;5093686;28;20084;-62
2022/08/30 07:33:48;;;;;;;12.55;5.45;;;;;;;33.34;33.91;96536.44;5093779;28;20072;-62
2022/08/30 07:36:17;;;;;;;10.13;4.65;;;;;;;33.07;33.04;96544.47;5093731;28;20076;-61
2022/08/30 07:38:46;;;;;;;13.77;5.15;;;;;;;32.85;32.50;96546.41;5093541;28;20573;-61
2022/08/30 07:41:19;;;;;;;9.37;4.53;;;;;;;32.99;33.66;96548.16;5093660;28;20063;-60
2022/08/30 07:43:47;;;;;;;10.30;4.43;;;;;;;33.15;32.53;96547.00;5093665;28;20048;-60
2022/08/30 07:46:14;;;;;;;10.02;4.32;;;;;;;33.24;32.73;96544.13;5093613;28;20048;-60
2022/08/30 07:48:42;;;;;;;10.45;4.35;;;;;;;33.39;32.99;96550.22;5093474;28;20037;-60
2022/08/30 07:51:11;;;;;;;7.38;4.18;;;;;;;33.43;32.64;96542.50;5093528;28;20048;-62
2022/08/30 07:53:38;;;;;;;8.23;4.57;;;;;;;33.24;32.55;96546.81;5093518;28;20051;-62
2022/08/30 07:56:07;;;;;;;12.98;4.90;;;;;;;32.87;32.34;96541.66;5093405;28;20457;-60
2022/08/30 07:58:36;;;;;;;9.82;4.47;;;;;;;32.56;33.22;96546.47;5093118;28;20489;-62
2022/08/30 08:01:04;;;;;;;9.02;4.45;;;;;;;31.87;34.28;96546.09;5093230;28;20044;-60
2022/08/30 08:03:31;;;;;;;10.38;4.30;;;;;;;31.61;34.83;96534.03;5093277;28;20078;-60
2022/08/30 08:06:00;;;;;;;8.85;4.63;;;;;;;31.50;36.33;96540.75;5093320;28;20044;-62
2022/08/30 08:08:28;;;;;;;7.30;4.37;;;;;;;31.39;34.95;96536.69;5093242;28;20056;-62
2022/08/30 08:10:55;;;;;;;6.85;4.40;;;;;;;31.35;35.08;96544.34;5093167;28;20561;-60
2022/08/30 08:13:24;;;;;;;8.73;4.60;;;;;;;31.48;35.20;96546.34;5093343;28;20474;-61
2022/08/30 08:15:51;;;;;;;5.90;4.20;;;;;;;31.63;34.62;96545.44;5093290;28;20464;-59
2022/08/30 08:18:18;;;;;;;9.32;4.63;;;;;;;31.43;34.54;96554.22;5093172;28;20051;-60
2022/08/30 08:20:45;;;;;;;10.43;5.03;;;;;;;31.24;34.55;96548.34;5093160;28;20052;-61
2022/08/30 08:23:12;;;;;;;8.65;4.82;;;;;;;31.18;33.20;96541.00;5093135;28;20555;-59
2022/08/30 08:25:41;;;;;;;6.82;4.63;;;;;;;31.14;35.17;96537.00;5093030;28;20048;-61
2022/08/30 08:28:09;;;;;;;7.05;4.82;;;;;;;31.05;34.22;96535.44;5093034;28;20391;-59
2022/08/30 08:30:39;;;;;;;8.02;4.75;;;;;;;30.96;34.53;96540.97;5093090;28;20040;-60
2022/08/30 08:33:06;;;;;;;9.10;4.47;;;;;;;31.07;34.21;96536.94;5094611;28;20497;-59
2022/08/30 08:35:34;;;;;;;10.88;4.45;;;;;;;31.05;34.88;96535.44;5097110;28;20146;-62
2022/08/30 08:38:01;;;;;;;7.88;4.35;;;;;;;31.13;34.64;96540.75;5096814;28;20067;-61
2022/08/30 08:40:36;;;;;;;13.23;5.00;;;;;;;31.20;34.16;96535.41;5096830;28;20082;-63
2022/08/30 08:43:08;;;;;;;10.00;5.03;;;;;;;31.20;35.55;96547.06;5096958;28;20048;-61
2022/08/30 08:45:46;;;;;;;10.00;4.65;;;;;;;30.87;35.03;96544.78;5096959;28;20447;-60
2022/08/30 08:48:29;;;;;;;12.82;5.30;;;;;;;30.91;35.01;96546.06;5096811;28;20131;-60
2022/08/30 08:53:45;;;;;;;12.35;4.60;;;;;;;31.10;34.28;96538.44;5096867;28;20141;-59
2022/08/30 08:56:15;;;;;;;17.70;5.00;;;;;;;31.34;33.87;96544.50;5096696;28;20105;-62
2022/08/30 08:58:44;;;;;;;11.23;5.28;;;;;;;31.34;33.36;96539.97;5096679;28;20083;-61
2022/08/30 09:01:16;;;;;;;7.43;4.30;;;;;;;31.25;35.27;96541.94;5096606;28;20056;-60
2022/08/30 09:03:45;;;;;;;13.02;4.90;;;;;;;31.14;35.16;96535.16;5096666;28;20044;-60
2022/08/30 09:06:33;;;;;;;10.02;5.43;;;;;;;31.54;35.26;96533.13;5096510;28;20477;-60
2022/08/30 09:09:00;;;;;;;9.00;5.05;;;;;;;31.75;34.44;96533.09;5096457;28;20505;-61
2022/08/30 09:11:32;;;;;;;12.65;5.50;;;;;;;32.15;33.89;96534.53;5096568;28;20044;-59
2022/08/30 09:14:00;;;;;;;13.43;5.15;;;;;;;32.06;33.39;96525.72;5096335;28;20044;-59
2022/08/30 09:19:38;;;;;;;9.23;4.75;;;;;;;31.86;34.21;96530.91;5111251;27;20125;-62
2022/08/30 09:22:15;;;;;;;11.75;4.85;;;;;;;31.54;33.32;96525.81;5110918;28;20485;-61
2022/08/30 09:24:45;;;;;;;11.60;4.97;;;;;;;31.39;33.49;96515.06;5111065;28;20044;-62
2022/08/30 09:27:18;;;;;;;9.57;4.95;;;;;;;31.27;34.61;96507.47;5111027;28;20079;-61
2022/08/30 09:30:08;;;;;;;11.65;4.53;;;;;;;31.44;33.16;96509.09;5111039;28;20105;-62
2022/08/30 09:32:39;;;;;;;8.90;5.10;;;;;;;31.58;33.82;96518.19;5105335;28;20127;-61
2022/08/30 09:35:12;;;;;;;9.63;4.15;;;;;;;31.63;32.58;96511.16;5110639;28;20367;-59
2022/08/30 09:37:48;;;;;;;10.65;4.32;;;;;;;31.60;33.76;96510.72;5110607;28;20051;-62
2022/08/30 09:40:22;;;;;;;13.43;4.32;;;;;;;31.83;34.28;96509.66;5110733;28;20040;-60
2022/08/30 09:43:08;;;;;;;11.80;4.57;;;;;;;31.76;32.36;96499.63;5110548;28;20126;-60
2022/08/30 09:45:38;;;;;;;14.38;5.00;;;;;;;31.68;33.05;96497.06;5110532;28;20048;-60
2022/08/30 09:48:27;;;;;;;9.85;5.03;;;;;;;31.63;34.32;96504.91;5110457;28;20075;-60
2022/08/30 09:51:14;;;;;;;13.45;4.80;;;;;;;31.64;33.36;96501.19;5110423;28;20059;-62
2022/08/30 09:53:48;;;;;;;9.38;4.80;;;;;;;31.46;32.32;96489.00;5093277;28;20130;-60
2022/08/30 09:56:23;;;;;;;10.55;5.07;;;;;;;31.42;33.29;96490.38;5110429;28;20055;-60
2022/08/30 09:59:02;;;;;;;12.07;4.55;;;;;;;31.49;33.95;96491.31;5110197;28;20056;-59
2022/08/30 10:01:32;;;;;;;11.55;4.97;;;;;;;31.55;32.65;96492.41;5110438;28;20044;-61
2022/08/30 10:04:06;;;;;;;14.32;4.80;;;;;;;31.45;32.47;96484.59;5110350;28;20086;-59
2022/08/30 10:06:41;;;;;;;12.55;4.65;;;;;;;31.65;35.01;96487.50;5110186;28;20090;-62
2022/08/30 10:09:19;;;;;;;11.10;4.90;;;;;;;31.84;31.59;96477.03;5110185;28;20043;-59
2022/08/30 10:11:54;;;;;;;14.98;4.82;;;;;;;31.49;31.98;96490.47;5109951;28;20047;-59
2022/08/30 10:14:46;;;;;;;14.88;4.60;;;;;;;31.48;32.59;96478.00;5109981;28;20040;-61
2022/08/30 10:17:20;;;;;;;12.45;4.35;;;;;;;31.43;33.44;96478.56;5109601;28;20052;-60
2022/08/30 10:20:01;;;;;;;14.63;4.95;;;;;;;31.52;33.31;96471.16;5109804;28;20083;-61
2022/08/30 10:22:34;;;;;;;11.57;4.68;;;;;;;31.73;32.72;96469.47;5109964;28;20044;-59
2022/08/30 10:25:08;;;;;;;15.68;4.82;;;;;;;31.86;31.91;96475.00;5109999;28;20047;-61
2022/08/30 10:27:42;;;;;;;6.75;4.70;;;;;;;31.82;32.27;96467.47;5109883;28;20052;-61
2022/08/30 10:30:13;;;;;;;11.35;5.20;;;;;;;31.99;33.86;96465.34;5099353;28;20056;-59
2022/08/30 10:32:48;;;;;;;13.77;5.63;;;;;;;31.98;32.22;96464.50;5096049;28;20473;-62
2022/08/30 10:35:18;;;;;;;13.23;4.97;;;;;;;32.05;32.83;96464.53;5096146;28;20177;-60
2022/08/30 10:37:50;;;;;;;15.52;4.88;;;;;;;32.09;31.80;96462.28;5096050;28;20048;-62
2022/08/30 10:43:22;;;;;;;10.20;4.32;;;;;;;32.23;33.05;96453.22;5095982;28;20071;-59
2022/08/30 10:45:53;;;;;;;8.35;4.57;;;;;;;32.20;32.19;96455.50;5095898;28;20094;-60
2022/08/30 10:48:25;;;;;;;9.20;4.32;;;;;;;32.17;30.62;96453.19;5095927;28;20497;-62
2022/08/30 10:50:56;;;;;;;7.40;4.13;;;;;;;31.96;32.83;96457.63;5095914;28;20097;-60
2022/08/30 10:53:32;;;;;;;8.80;4.68;;;;;;;32.05;31.05;96458.31;5095816;28;20044;-60
2022/08/30 10:56:04;;;;;;;14.55;4.90;;;;;;;32.12;31.31;96451.88;5095851;28;20052;-60
2022/08/30 10:58:32;;;;;;;13.50;4.85;;;;;;;32.01;31.51;96453.28;5095625;28;20055;-59
2022/08/30 11:01:10;;;;;;;10.73;5.38;;;;;;;32.02;32.00;96446.00;5095613;28;20050;-60
2022/08/30 11:04:08;;;;;;;10.43;4.53;;;;;;;31.90;31.34;96441.13;5095650;28;20515;-59
2022/08/30 11:06:42;;;;;;;15.85;4.70;;;;;;;31.80;32.54;96447.88;5093133;28;20110;-60
2022/08/30 11:09:24;;;;;;;15.10;4.82;;;;;;;31.72;31.60;96448.88;5095481;28;20123;-62
2022/08/30 11:12:12;;;;;;;12.15;4.90;;;;;;;31.80;33.06;96439.78;5095333;28;20048;-62
2022/08/30 11:14:41;;;;;;;13.77;4.55;;;;;;;31.78;31.72;96442.69;5095510;28;20052;-61
2022/08/30 11:17:29;;;;;;;11.45;4.45;;;;;;;31.65;32.02;96435.31;5095042;28;20087;-59
2022/08/30 11:19:59;;;;;;;11.70;4.53;;;;;;;31.84;31.14;96433.78;5095256;28;20135;-62
2022/08/30 11:22:28;;;;;;;;;;;;;;;31.92;31.85;96438.25;5095586;28;20056;-60
2022/08/30 11:25:04;;;;;;;9.68;4.90;;;;;;;32.02;33.14;96432.47;5095062;28;20434;-60
2022/08/30 11:27:44;;;;;;;12.48;4.82;;;;;;;32.16;31.89;96419.88;5095073;28;20113;-62
2022/08/30 11:30:47;;;;;;;9.60;4.50;;;;;;;32.30;32.56;96414.56;5095077;28;20052;-61
2022/08/30 11:33:43;;;;;;;15.55;5.22;;;;;;;32.38;33.10;96417.06;5095084;28;20044;-60
2022/08/30 11:36:12;;;;;;;13.82;4.60;;;;;;;32.04;33.42;96416.91;5094955;28;20112;-61
2022/08/30 11:39:04;;;;;;;17.13;4.75;;;;;;;31.86;32.13;96415.50;5094842;28;20055;-60
2022/08/30 11:41:37;;;;;;;11.93;4.63;;;;;;;31.92;33.55;96410.34;5093796;28;20059;-62
2022/08/30 11:44:31;;;;;;;11.13;4.20;;;;;;;31.90;32.71;96413.22;5094982;28;20052;-59
2022/08/30 11:46:59;;;;;;;7.03;4.82;;;;;;;31.74;32.44;96399.00;5080648;28;20044;-60
2022/08/30 11:50:01;;;;;;;16.30;4.88;;;;;;;31.98;32.02;96396.06;5094656;28;20044;-60
2022/08/30 11:52:45;;;;;;;11.82;4.47;;;;;;;31.64;30.93;96398.50;5094545;28;20044;-59